sensor_id;sensor_type;location;lat;lon;timestamp;P1;durP1;ratioP1;P2;durP2;ratioP2
44810;SDS011;30526;52.184;4.476;2023-12-22T00:00:14;32.40;;;19.75;;
44810;SDS011;30526;52.184;4.476;2023-12-22T00:02:41;40.47;;;20.50;;
44810;SDS011;30526;52.184;4.476;2023-12-22T00:05:07;36.95;;;21.35;;
44810;SDS011;30526;52.184;4.476;2023-12-22T00:07:33;34.22;;;20.33;;
44810;SDS011;30526;52.184;4.476;2023-12-22T00:09:59;35.80;;;19.90;;
44810;SDS011;30526;52.184;4.476;2023-12-22T00:12:25;33.55;;;20.33;;
44810;SDS011;30526;52.184;4.476;2023-12-22T00:14:51;38.85;;;21.15;;
44810;SDS011;30526;52.184;4.476;2023-12-22T00:17:17;33.25;;;24.85;;
44810;SDS011;30526;52.184;4.476;2023-12-22T00:19:43;40.90;;;26.30;;
44810;SDS011;30526;52.184;4.476;2023-12-22T00:22:09;36.72;;;23.65;;
44810;SDS011;30526;52.184;4.476;2023-12-22T00:24:35;34.63;;;22.40;;
44810;SDS011;30526;52.184;4.476;2023-12-22T00:27:01;30.55;;;19.77;;
44810;SDS011;30526;52.184;4.476;2023-12-22T00:29:28;30.17;;;16.92;;
44810;SDS011;30526;52.184;4.476;2023-12-22T00:31:54;26.13;;;16.52;;
44810;SDS011;30526;52.184;4.476;2023-12-22T00:34:21;23.77;;;15.40;;
44810;SDS011;30526;52.184;4.476;2023-12-22T00:36:47;26.80;;;15.27;;
44810;SDS011;30526;52.184;4.476;2023-12-22T00:39:13;39.08;;;16.77;;
44810;SDS011;30526;52.184;4.476;2023-12-22T00:41:39;33.35;;;16.45;;
44810;SDS011;30526;52.184;4.476;2023-12-22T00:44:05;31.90;;;15.00;;
44810;SDS011;30526;52.184;4.476;2023-12-22T00:46:31;22.35;;;15.73;;
44810;SDS011;30526;52.184;4.476;2023-12-22T00:48:57;27.92;;;15.80;;
44810;SDS011;30526;52.184;4.476;2023-12-22T00:51:23;29.35;;;15.38;;
44810;SDS011;30526;52.184;4.476;2023-12-22T00:53:50;25.98;;;14.93;;
44810;SDS011;30526;52.184;4.476;2023-12-22T00:56:16;32.70;;;15.77;;
44810;SDS011;30526;52.184;4.476;2023-12-22T00:58:42;36.38;;;16.55;;
44810;SDS011;30526;52.184;4.476;2023-12-22T01:01:08;26.17;;;15.60;;
44810;SDS011;30526;52.184;4.476;2023-12-22T01:03:35;23.63;;;14.68;;
44810;SDS011;30526;52.184;4.476;2023-12-22T01:06:01;20.65;;;14.70;;
44810;SDS011;30526;52.184;4.476;2023-12-22T01:08:27;27.08;;;14.75;;
44810;SDS011;30526;52.184;4.476;2023-12-22T01:10:52;24.95;;;14.77;;
44810;SDS011;30526;52.184;4.476;2023-12-22T01:13:18;24.98;;;14.45;;
44810;SDS011;30526;52.184;4.476;2023-12-22T01:15:44;26.25;;;15.32;;
44810;SDS011;30526;52.184;4.476;2023-12-22T01:18:11;37.00;;;14.35;;
44810;SDS011;30526;52.184;4.476;2023-12-22T01:20:37;22.90;;;13.38;;
44810;SDS011;30526;52.184;4.476;2023-12-22T01:23:03;33.88;;;14.32;;
44810;SDS011;30526;52.184;4.476;2023-12-22T01:25:29;24.20;;;13.40;;
44810;SDS011;30526;52.184;4.476;2023-12-22T01:27:55;31.17;;;13.70;;
44810;SDS011;30526;52.184;4.476;2023-12-22T01:30:21;25.52;;;14.20;;
44810;SDS011;30526;52.184;4.476;2023-12-22T01:32:47;34.45;;;13.77;;
44810;SDS011;30526;52.184;4.476;2023-12-22T01:35:13;31.00;;;13.90;;
44810;SDS011;30526;52.184;4.476;2023-12-22T01:37:39;28.02;;;13.68;;
44810;SDS011;30526;52.184;4.476;2023-12-22T01:40:05;32.23;;;15.00;;
44810;SDS011;30526;52.184;4.476;2023-12-22T01:42:32;25.00;;;12.87;;
44810;SDS011;30526;52.184;4.476;2023-12-22T01:44:58;36.08;;;14.15;;
44810;SDS011;30526;52.184;4.476;2023-12-22T01:47:24;26.42;;;13.82;;
44810;SDS011;30526;52.184;4.476;2023-12-22T01:49:50;25.13;;;13.68;;
44810;SDS011;30526;52.184;4.476;2023-12-22T01:52:16;26.00;;;14.25;;
44810;SDS011;30526;52.184;4.476;2023-12-22T01:54:43;24.00;;;13.57;;
44810;SDS011;30526;52.184;4.476;2023-12-22T01:57:09;23.40;;;13.13;;
44810;SDS011;30526;52.184;4.476;2023-12-22T01:59:37;32.05;;;13.63;;
44810;SDS011;30526;52.184;4.476;2023-12-22T02:02:03;24.67;;;14.10;;
44810;SDS011;30526;52.184;4.476;2023-12-22T02:04:30;34.22;;;13.80;;
44810;SDS011;30526;52.184;4.476;2023-12-22T02:09:22;34.33;;;16.95;;
44810;SDS011;30526;52.184;4.476;2023-12-22T02:11:48;35.28;;;18.38;;
44810;SDS011;30526;52.184;4.476;2023-12-22T02:14:14;34.03;;;15.70;;
44810;SDS011;30526;52.184;4.476;2023-12-22T02:19:21;29.67;;;14.27;;
44810;SDS011;30526;52.184;4.476;2023-12-22T02:21:59;34.28;;;13.93;;
44810;SDS011;30526;52.184;4.476;2023-12-22T02:24:25;29.63;;;13.75;;
44810;SDS011;30526;52.184;4.476;2023-12-22T02:26:51;23.08;;;12.75;;
44810;SDS011;30526;52.184;4.476;2023-12-22T02:29:19;26.75;;;13.18;;
44810;SDS011;30526;52.184;4.476;2023-12-22T02:31:45;29.27;;;14.10;;
44810;SDS011;30526;52.184;4.476;2023-12-22T02:34:17;23.77;;;13.38;;
44810;SDS011;30526;52.184;4.476;2023-12-22T02:36:44;29.45;;;13.50;;
44810;SDS011;30526;52.184;4.476;2023-12-22T02:39:10;22.73;;;13.05;;
44810;SDS011;30526;52.184;4.476;2023-12-22T02:41:36;15.63;;;12.65;;
44810;SDS011;30526;52.184;4.476;2023-12-22T02:44:03;24.52;;;12.77;;
44810;SDS011;30526;52.184;4.476;2023-12-22T02:46:29;22.07;;;12.13;;
44810;SDS011;30526;52.184;4.476;2023-12-22T02:48:55;29.88;;;13.20;;
44810;SDS011;30526;52.184;4.476;2023-12-22T02:51:21;33.20;;;13.10;;
44810;SDS011;30526;52.184;4.476;2023-12-22T02:53:47;28.83;;;13.68;;
44810;SDS011;30526;52.184;4.476;2023-12-22T02:56:13;23.33;;;12.80;;
44810;SDS011;30526;52.184;4.476;2023-12-22T02:58:39;25.67;;;12.88;;
44810;SDS011;30526;52.184;4.476;2023-12-22T03:01:05;20.38;;;12.70;;
44810;SDS011;30526;52.184;4.476;2023-12-22T03:03:31;24.75;;;12.95;;
44810;SDS011;30526;52.184;4.476;2023-12-22T03:05:57;28.85;;;12.85;;
44810;SDS011;30526;52.184;4.476;2023-12-22T03:08:23;23.48;;;13.65;;
44810;SDS011;30526;52.184;4.476;2023-12-22T03:10:49;23.75;;;12.73;;
44810;SDS011;30526;52.184;4.476;2023-12-22T03:13:16;25.70;;;13.57;;
44810;SDS011;30526;52.184;4.476;2023-12-22T03:15:42;22.33;;;12.85;;
44810;SDS011;30526;52.184;4.476;2023-12-22T03:18:08;26.23;;;12.57;;
44810;SDS011;30526;52.184;4.476;2023-12-22T03:20:34;24.80;;;12.60;;
44810;SDS011;30526;52.184;4.476;2023-12-22T03:22:59;28.92;;;13.75;;
44810;SDS011;30526;52.184;4.476;2023-12-22T03:25:25;28.38;;;13.73;;
44810;SDS011;30526;52.184;4.476;2023-12-22T03:27:51;25.55;;;14.18;;
44810;SDS011;30526;52.184;4.476;2023-12-22T03:30:17;26.58;;;13.68;;
44810;SDS011;30526;52.184;4.476;2023-12-22T03:32:43;29.75;;;13.80;;
44810;SDS011;30526;52.184;4.476;2023-12-22T03:35:09;27.38;;;13.43;;
44810;SDS011;30526;52.184;4.476;2023-12-22T03:37:35;31.17;;;13.55;;
44810;SDS011;30526;52.184;4.476;2023-12-22T03:40:01;25.92;;;12.95;;
44810;SDS011;30526;52.184;4.476;2023-12-22T03:42:27;28.95;;;13.02;;
44810;SDS011;30526;52.184;4.476;2023-12-22T03:44:53;29.60;;;13.07;;
44810;SDS011;30526;52.184;4.476;2023-12-22T03:47:19;27.50;;;12.80;;
44810;SDS011;30526;52.184;4.476;2023-12-22T03:49:45;19.63;;;13.38;;
44810;SDS011;30526;52.184;4.476;2023-12-22T03:52:11;24.42;;;13.13;;
44810;SDS011;30526;52.184;4.476;2023-12-22T03:54:37;26.10;;;13.05;;
44810;SDS011;30526;52.184;4.476;2023-12-22T03:57:03;28.25;;;12.93;;
44810;SDS011;30526;52.184;4.476;2023-12-22T03:59:29;29.52;;;13.45;;
44810;SDS011;30526;52.184;4.476;2023-12-22T04:01:55;25.83;;;13.13;;
44810;SDS011;30526;52.184;4.476;2023-12-22T04:06:49;25.23;;;12.63;;
44810;SDS011;30526;52.184;4.476;2023-12-22T04:09:15;25.33;;;13.20;;
44810;SDS011;30526;52.184;4.476;2023-12-22T04:11:41;23.27;;;13.05;;
44810;SDS011;30526;52.184;4.476;2023-12-22T04:14:07;30.80;;;12.77;;
44810;SDS011;30526;52.184;4.476;2023-12-22T04:16:34;20.55;;;12.88;;
44810;SDS011;30526;52.184;4.476;2023-12-22T04:19:02;21.23;;;12.70;;
44810;SDS011;30526;52.184;4.476;2023-12-22T04:21:28;26.38;;;12.63;;
44810;SDS011;30526;52.184;4.476;2023-12-22T04:23:53;24.63;;;12.25;;
44810;SDS011;30526;52.184;4.476;2023-12-22T04:26:20;22.90;;;11.93;;
44810;SDS011;30526;52.184;4.476;2023-12-22T04:28:46;23.05;;;12.00;;
44810;SDS011;30526;52.184;4.476;2023-12-22T04:31:12;20.02;;;12.23;;
44810;SDS011;30526;52.184;4.476;2023-12-22T04:33:38;24.65;;;11.57;;
44810;SDS011;30526;52.184;4.476;2023-12-22T04:36:04;27.85;;;11.73;;
44810;SDS011;30526;52.184;4.476;2023-12-22T04:38:30;27.60;;;11.35;;
44810;SDS011;30526;52.184;4.476;2023-12-22T04:40:56;23.23;;;11.88;;
44810;SDS011;30526;52.184;4.476;2023-12-22T04:43:22;23.55;;;11.48;;
44810;SDS011;30526;52.184;4.476;2023-12-22T04:45:48;27.08;;;11.57;;
44810;SDS011;30526;52.184;4.476;2023-12-22T04:48:14;21.98;;;11.43;;
44810;SDS011;30526;52.184;4.476;2023-12-22T04:50:40;20.13;;;11.45;;
44810;SDS011;30526;52.184;4.476;2023-12-22T04:53:06;23.80;;;12.07;;
44810;SDS011;30526;52.184;4.476;2023-12-22T04:55:32;19.60;;;11.57;;
44810;SDS011;30526;52.184;4.476;2023-12-22T04:57:58;25.98;;;11.32;;
44810;SDS011;30526;52.184;4.476;2023-12-22T05:00:25;31.23;;;11.52;;
44810;SDS011;30526;52.184;4.476;2023-12-22T05:02:51;22.50;;;11.85;;
44810;SDS011;30526;52.184;4.476;2023-12-22T05:05:17;24.15;;;11.50;;
44810;SDS011;30526;52.184;4.476;2023-12-22T05:07:43;19.30;;;11.30;;
44810;SDS011;30526;52.184;4.476;2023-12-22T05:10:09;24.00;;;11.93;;
44810;SDS011;30526;52.184;4.476;2023-12-22T05:12:35;29.80;;;11.10;;
44810;SDS011;30526;52.184;4.476;2023-12-22T05:15:01;26.50;;;10.85;;
44810;SDS011;30526;52.184;4.476;2023-12-22T05:17:27;22.10;;;11.15;;
44810;SDS011;30526;52.184;4.476;2023-12-22T05:19:53;30.08;;;11.23;;
44810;SDS011;30526;52.184;4.476;2023-12-22T05:22:19;19.77;;;11.07;;
44810;SDS011;30526;52.184;4.476;2023-12-22T05:24:45;25.55;;;11.02;;
44810;SDS011;30526;52.184;4.476;2023-12-22T05:27:11;24.58;;;11.73;;
44810;SDS011;30526;52.184;4.476;2023-12-22T05:29:37;22.48;;;11.30;;
44810;SDS011;30526;52.184;4.476;2023-12-22T05:32:03;27.42;;;11.85;;
44810;SDS011;30526;52.184;4.476;2023-12-22T05:34:29;31.10;;;11.82;;
44810;SDS011;30526;52.184;4.476;2023-12-22T05:36:56;30.47;;;12.17;;
44810;SDS011;30526;52.184;4.476;2023-12-22T05:39:22;32.50;;;11.98;;
44810;SDS011;30526;52.184;4.476;2023-12-22T05:41:48;25.10;;;11.40;;
44810;SDS011;30526;52.184;4.476;2023-12-22T05:44:14;24.15;;;11.48;;
44810;SDS011;30526;52.184;4.476;2023-12-22T05:46:40;29.45;;;11.25;;
44810;SDS011;30526;52.184;4.476;2023-12-22T05:49:06;31.35;;;11.52;;
44810;SDS011;30526;52.184;4.476;2023-12-22T05:51:36;27.77;;;11.85;;
44810;SDS011;30526;52.184;4.476;2023-12-22T05:54:03;28.52;;;11.77;;
44810;SDS011;30526;52.184;4.476;2023-12-22T05:56:29;33.38;;;12.02;;
44810;SDS011;30526;52.184;4.476;2023-12-22T05:58:55;43.55;;;12.57;;
44810;SDS011;30526;52.184;4.476;2023-12-22T06:01:21;27.08;;;11.43;;
44810;SDS011;30526;52.184;4.476;2023-12-22T06:03:47;25.40;;;11.80;;
44810;SDS011;30526;52.184;4.476;2023-12-22T06:06:13;19.07;;;10.97;;
44810;SDS011;30526;52.184;4.476;2023-12-22T06:08:39;27.20;;;11.13;;
44810;SDS011;30526;52.184;4.476;2023-12-22T06:11:05;29.05;;;12.02;;
44810;SDS011;30526;52.184;4.476;2023-12-22T06:13:31;30.38;;;12.05;;
44810;SDS011;30526;52.184;4.476;2023-12-22T06:15:58;37.95;;;13.07;;
44810;SDS011;30526;52.184;4.476;2023-12-22T06:18:24;34.17;;;12.35;;
44810;SDS011;30526;52.184;4.476;2023-12-22T06:20:50;34.50;;;13.27;;
44810;SDS011;30526;52.184;4.476;2023-12-22T06:23:16;42.17;;;12.77;;
44810;SDS011;30526;52.184;4.476;2023-12-22T06:25:42;35.90;;;12.95;;
44810;SDS011;30526;52.184;4.476;2023-12-22T06:28:08;42.08;;;13.48;;
44810;SDS011;30526;52.184;4.476;2023-12-22T06:30:34;39.17;;;13.25;;
44810;SDS011;30526;52.184;4.476;2023-12-22T06:33:00;42.70;;;13.45;;
44810;SDS011;30526;52.184;4.476;2023-12-22T06:35:26;35.83;;;12.57;;
44810;SDS011;30526;52.184;4.476;2023-12-22T06:37:52;42.40;;;12.75;;
44810;SDS011;30526;52.184;4.476;2023-12-22T06:40:19;39.42;;;11.95;;
44810;SDS011;30526;52.184;4.476;2023-12-22T06:42:46;38.85;;;12.75;;
44810;SDS011;30526;52.184;4.476;2023-12-22T06:45:12;39.33;;;12.88;;
44810;SDS011;30526;52.184;4.476;2023-12-22T06:47:38;36.20;;;12.27;;
44810;SDS011;30526;52.184;4.476;2023-12-22T06:50:04;31.92;;;12.90;;
44810;SDS011;30526;52.184;4.476;2023-12-22T06:52:30;26.10;;;11.07;;
44810;SDS011;30526;52.184;4.476;2023-12-22T06:54:56;35.63;;;12.95;;
44810;SDS011;30526;52.184;4.476;2023-12-22T06:57:22;44.88;;;13.65;;
44810;SDS011;30526;52.184;4.476;2023-12-22T06:59:48;38.28;;;12.48;;
44810;SDS011;30526;52.184;4.476;2023-12-22T07:02:14;50.05;;;12.63;;
44810;SDS011;30526;52.184;4.476;2023-12-22T07:04:40;38.38;;;13.18;;
44810;SDS011;30526;52.184;4.476;2023-12-22T07:07:06;34.17;;;12.60;;
44810;SDS011;30526;52.184;4.476;2023-12-22T07:09:32;46.22;;;12.55;;
44810;SDS011;30526;52.184;4.476;2023-12-22T07:11:58;44.28;;;12.13;;
44810;SDS011;30526;52.184;4.476;2023-12-22T07:14:24;34.90;;;11.52;;
44810;SDS011;30526;52.184;4.476;2023-12-22T07:16:50;35.95;;;11.23;;
44810;SDS011;30526;52.184;4.476;2023-12-22T07:19:16;39.28;;;12.90;;
44810;SDS011;30526;52.184;4.476;2023-12-22T07:21:42;37.63;;;12.68;;
44810;SDS011;30526;52.184;4.476;2023-12-22T07:24:08;28.02;;;10.98;;
44810;SDS011;30526;52.184;4.476;2023-12-22T07:26:35;32.65;;;10.80;;
44810;SDS011;30526;52.184;4.476;2023-12-22T07:29:01;28.92;;;11.82;;
44810;SDS011;30526;52.184;4.476;2023-12-22T07:31:27;38.60;;;12.45;;
44810;SDS011;30526;52.184;4.476;2023-12-22T07:33:53;35.30;;;16.50;;
44810;SDS011;30526;52.184;4.476;2023-12-22T07:36:19;53.80;;;37.80;;
44810;SDS011;30526;52.184;4.476;2023-12-22T07:38:46;49.70;;;42.63;;
44810;SDS011;30526;52.184;4.476;2023-12-22T07:41:12;51.92;;;41.08;;
44810;SDS011;30526;52.184;4.476;2023-12-22T07:43:38;54.33;;;41.60;;
44810;SDS011;30526;52.184;4.476;2023-12-22T07:46:04;59.30;;;43.22;;
44810;SDS011;30526;52.184;4.476;2023-12-22T07:48:30;54.97;;;44.13;;
44810;SDS011;30526;52.184;4.476;2023-12-22T07:50:56;62.47;;;47.22;;
44810;SDS011;30526;52.184;4.476;2023-12-22T07:53:22;60.53;;;42.25;;
44810;SDS011;30526;52.184;4.476;2023-12-22T07:55:48;73.47;;;43.85;;
44810;SDS011;30526;52.184;4.476;2023-12-22T07:58:14;56.88;;;38.13;;
44810;SDS011;30526;52.184;4.476;2023-12-22T08:00:42;49.58;;;36.28;;
44810;SDS011;30526;52.184;4.476;2023-12-22T08:03:08;40.65;;;32.30;;
44810;SDS011;30526;52.184;4.476;2023-12-22T08:05:34;44.20;;;33.40;;
44810;SDS011;30526;52.184;4.476;2023-12-22T08:08:00;41.58;;;31.95;;
44810;SDS011;30526;52.184;4.476;2023-12-22T08:10:26;50.85;;;34.50;;
44810;SDS011;30526;52.184;4.476;2023-12-22T08:12:52;48.45;;;36.28;;
44810;SDS011;30526;52.184;4.476;2023-12-22T08:15:18;49.10;;;37.40;;
44810;SDS011;30526;52.184;4.476;2023-12-22T08:17:51;47.65;;;36.70;;
44810;SDS011;30526;52.184;4.476;2023-12-22T08:20:17;51.35;;;32.75;;
44810;SDS011;30526;52.184;4.476;2023-12-22T08:22:44;34.78;;;30.20;;
44810;SDS011;30526;52.184;4.476;2023-12-22T08:25:10;43.83;;;32.03;;
44810;SDS011;30526;52.184;4.476;2023-12-22T08:27:36;37.45;;;31.00;;
44810;SDS011;30526;52.184;4.476;2023-12-22T08:30:02;48.13;;;31.88;;
44810;SDS011;30526;52.184;4.476;2023-12-22T08:32:28;44.38;;;30.42;;
44810;SDS011;30526;52.184;4.476;2023-12-22T08:34:54;46.58;;;29.38;;
44810;SDS011;30526;52.184;4.476;2023-12-22T08:37:20;38.92;;;26.77;;
44810;SDS011;30526;52.184;4.476;2023-12-22T08:39:46;36.83;;;25.55;;
44810;SDS011;30526;52.184;4.476;2023-12-22T08:42:12;32.90;;;25.05;;
44810;SDS011;30526;52.184;4.476;2023-12-22T08:44:38;29.60;;;23.85;;
44810;SDS011;30526;52.184;4.476;2023-12-22T08:47:04;35.40;;;23.55;;
44810;SDS011;30526;52.184;4.476;2023-12-22T08:49:30;27.73;;;23.67;;
44810;SDS011;30526;52.184;4.476;2023-12-22T08:51:56;30.30;;;22.95;;
44810;SDS011;30526;52.184;4.476;2023-12-22T08:54:22;25.73;;;22.55;;
44810;SDS011;30526;52.184;4.476;2023-12-22T08:56:48;32.42;;;20.50;;
44810;SDS011;30526;52.184;4.476;2023-12-22T08:59:14;38.92;;;21.98;;
44810;SDS011;30526;52.184;4.476;2023-12-22T09:01:40;30.77;;;20.90;;
44810;SDS011;30526;52.184;4.476;2023-12-22T09:04:07;26.87;;;24.03;;
44810;SDS011;30526;52.184;4.476;2023-12-22T09:06:35;29.67;;;20.92;;
44810;SDS011;30526;52.184;4.476;2023-12-22T09:09:01;35.80;;;18.95;;
44810;SDS011;30526;52.184;4.476;2023-12-22T09:11:28;24.20;;;16.50;;
44810;SDS011;30526;52.184;4.476;2023-12-22T09:13:54;18.95;;;13.95;;
44810;SDS011;30526;52.184;4.476;2023-12-22T09:16:23;18.60;;;12.23;;
44810;SDS011;30526;52.184;4.476;2023-12-22T09:18:52;25.67;;;12.48;;
44810;SDS011;30526;52.184;4.476;2023-12-22T09:21:18;24.00;;;12.75;;
44810;SDS011;30526;52.184;4.476;2023-12-22T09:23:45;21.88;;;12.45;;
44810;SDS011;30526;52.184;4.476;2023-12-22T09:26:14;13.80;;;11.25;;
44810;SDS011;30526;52.184;4.476;2023-12-22T09:28:40;17.10;;;12.13;;
44810;SDS011;30526;52.184;4.476;2023-12-22T09:31:07;12.57;;;11.27;;
44810;SDS011;30526;52.184;4.476;2023-12-22T09:33:33;19.77;;;11.63;;
44810;SDS011;30526;52.184;4.476;2023-12-22T09:35:59;22.23;;;10.75;;
44810;SDS011;30526;52.184;4.476;2023-12-22T09:38:25;22.77;;;11.20;;
44810;SDS011;30526;52.184;4.476;2023-12-22T09:40:52;18.30;;;11.25;;
44810;SDS011;30526;52.184;4.476;2023-12-22T09:43:19;14.75;;;11.55;;
44810;SDS011;30526;52.184;4.476;2023-12-22T09:45:45;14.57;;;11.00;;
44810;SDS011;30526;52.184;4.476;2023-12-22T09:48:12;15.23;;;11.32;;
44810;SDS011;30526;52.184;4.476;2023-12-22T09:50:43;17.13;;;11.50;;
44810;SDS011;30526;52.184;4.476;2023-12-22T09:53:09;15.93;;;10.77;;
44810;SDS011;30526;52.184;4.476;2023-12-22T09:55:36;21.15;;;11.10;;
44810;SDS011;30526;52.184;4.476;2023-12-22T09:58:03;23.67;;;11.15;;
44810;SDS011;30526;52.184;4.476;2023-12-22T10:00:31;15.73;;;10.93;;
44810;SDS011;30526;52.184;4.476;2023-12-22T10:02:57;16.70;;;10.25;;
44810;SDS011;30526;52.184;4.476;2023-12-22T10:05:23;16.77;;;11.23;;
44810;SDS011;30526;52.184;4.476;2023-12-22T10:07:49;18.33;;;10.65;;
44810;SDS011;30526;52.184;4.476;2023-12-22T10:10:16;20.60;;;10.27;;
44810;SDS011;30526;52.184;4.476;2023-12-22T10:12:44;16.23;;;10.07;;
44810;SDS011;30526;52.184;4.476;2023-12-22T10:15:11;18.65;;;9.55;;
44810;SDS011;30526;52.184;4.476;2023-12-22T10:17:38;15.00;;;9.32;;
44810;SDS011;30526;52.184;4.476;2023-12-22T10:20:05;23.42;;;10.27;;
44810;SDS011;30526;52.184;4.476;2023-12-22T10:22:31;18.00;;;9.95;;
44810;SDS011;30526;52.184;4.476;2023-12-22T10:24:57;20.33;;;9.85;;
44810;SDS011;30526;52.184;4.476;2023-12-22T10:27:23;19.10;;;9.80;;
44810;SDS011;30526;52.184;4.476;2023-12-22T10:29:50;16.95;;;9.63;;
44810;SDS011;30526;52.184;4.476;2023-12-22T10:32:16;13.70;;;9.20;;
44810;SDS011;30526;52.184;4.476;2023-12-22T10:34:43;14.90;;;9.65;;
44810;SDS011;30526;52.184;4.476;2023-12-22T10:37:09;14.40;;;9.10;;
44810;SDS011;30526;52.184;4.476;2023-12-22T10:39:37;13.45;;;8.80;;
44810;SDS011;30526;52.184;4.476;2023-12-22T10:42:04;16.33;;;8.60;;
44810;SDS011;30526;52.184;4.476;2023-12-22T10:44:30;10.80;;;7.60;;
44810;SDS011;30526;52.184;4.476;2023-12-22T10:46:56;18.35;;;9.82;;
44810;SDS011;30526;52.184;4.476;2023-12-22T10:49:23;18.08;;;16.15;;
44810;SDS011;30526;52.184;4.476;2023-12-22T10:51:49;26.67;;;18.27;;
44810;SDS011;30526;52.184;4.476;2023-12-22T10:54:16;29.27;;;19.13;;
44810;SDS011;30526;52.184;4.476;2023-12-22T10:56:42;25.27;;;16.70;;
44810;SDS011;30526;52.184;4.476;2023-12-22T10:59:08;23.77;;;15.30;;
44810;SDS011;30526;52.184;4.476;2023-12-22T11:01:37;17.25;;;14.38;;
44810;SDS011;30526;52.184;4.476;2023-12-22T11:04:08;17.75;;;13.98;;
44810;SDS011;30526;52.184;4.476;2023-12-22T11:06:35;27.13;;;14.10;;
44810;SDS011;30526;52.184;4.476;2023-12-22T11:09:03;19.40;;;12.57;;
44810;SDS011;30526;52.184;4.476;2023-12-22T11:11:36;21.10;;;12.02;;
44810;SDS011;30526;52.184;4.476;2023-12-22T11:14:02;17.40;;;11.02;;
44810;SDS011;30526;52.184;4.476;2023-12-22T11:16:29;17.43;;;11.20;;
44810;SDS011;30526;52.184;4.476;2023-12-22T11:18:55;19.03;;;10.37;;
44810;SDS011;30526;52.184;4.476;2023-12-22T11:21:24;21.80;;;9.77;;
44810;SDS011;30526;52.184;4.476;2023-12-22T11:23:51;20.40;;;9.18;;
44810;SDS011;30526;52.184;4.476;2023-12-22T11:26:17;27.75;;;10.93;;
44810;SDS011;30526;52.184;4.476;2023-12-22T11:28:47;27.73;;;9.50;;
44810;SDS011;30526;52.184;4.476;2023-12-22T11:31:14;15.13;;;8.70;;
44810;SDS011;30526;52.184;4.476;2023-12-22T11:33:44;15.10;;;8.73;;
44810;SDS011;30526;52.184;4.476;2023-12-22T11:36:11;10.95;;;8.40;;
44810;SDS011;30526;52.184;4.476;2023-12-22T11:41:04;20.08;;;8.13;;
44810;SDS011;30526;52.184;4.476;2023-12-22T11:43:31;23.80;;;9.40;;
44810;SDS011;30526;52.184;4.476;2023-12-22T11:46:01;24.48;;;8.23;;
44810;SDS011;30526;52.184;4.476;2023-12-22T11:48:27;19.77;;;8.77;;
44810;SDS011;30526;52.184;4.476;2023-12-22T11:50:53;16.30;;;7.90;;
44810;SDS011;30526;52.184;4.476;2023-12-22T11:53:23;20.50;;;7.93;;
44810;SDS011;30526;52.184;4.476;2023-12-22T11:56:23;21.88;;;10.00;;
44810;SDS011;30526;52.184;4.476;2023-12-22T11:58:44;21.60;;;8.93;;
44810;SDS011;30526;52.184;4.476;2023-12-22T12:01:18;18.92;;;9.35;;
44810;SDS011;30526;52.184;4.476;2023-12-22T12:03:52;18.70;;;8.77;;
44810;SDS011;30526;52.184;4.476;2023-12-22T12:08:44;14.27;;;9.20;;
44810;SDS011;30526;52.184;4.476;2023-12-22T12:11:10;17.48;;;9.85;;
44810;SDS011;30526;52.184;4.476;2023-12-22T12:13:40;25.70;;;10.27;;
44810;SDS011;30526;52.184;4.476;2023-12-22T12:16:07;19.83;;;11.10;;
44810;SDS011;30526;52.184;4.476;2023-12-22T12:18:33;16.00;;;9.70;;
44810;SDS011;30526;52.184;4.476;2023-12-22T12:21:00;27.27;;;9.82;;
44810;SDS011;30526;52.184;4.476;2023-12-22T12:23:27;25.27;;;10.38;;
44810;SDS011;30526;52.184;4.476;2023-12-22T12:25:53;20.30;;;12.88;;
44810;SDS011;30526;52.184;4.476;2023-12-22T12:28:24;15.32;;;9.45;;
44810;SDS011;30526;52.184;4.476;2023-12-22T12:30:54;19.33;;;9.95;;
44810;SDS011;30526;52.184;4.476;2023-12-22T12:33:23;18.35;;;10.70;;
44810;SDS011;30526;52.184;4.476;2023-12-22T12:35:50;15.38;;;9.30;;
44810;SDS011;30526;52.184;4.476;2023-12-22T12:38:18;18.40;;;10.15;;
44810;SDS011;30526;52.184;4.476;2023-12-22T12:40:46;18.92;;;9.73;;
44810;SDS011;30526;52.184;4.476;2023-12-22T12:43:16;19.25;;;9.68;;
44810;SDS011;30526;52.184;4.476;2023-12-22T12:45:43;17.45;;;9.30;;
44810;SDS011;30526;52.184;4.476;2023-12-22T12:48:09;23.10;;;9.75;;
44810;SDS011;30526;52.184;4.476;2023-12-22T12:50:35;21.38;;;9.35;;
44810;SDS011;30526;52.184;4.476;2023-12-22T12:53:01;21.75;;;9.45;;
44810;SDS011;30526;52.184;4.476;2023-12-22T12:55:27;26.58;;;10.30;;
44810;SDS011;30526;52.184;4.476;2023-12-22T12:57:54;23.27;;;9.68;;
44810;SDS011;30526;52.184;4.476;2023-12-22T13:00:25;19.77;;;9.50;;
44810;SDS011;30526;52.184;4.476;2023-12-22T13:03:01;30.17;;;9.77;;
44810;SDS011;30526;52.184;4.476;2023-12-22T13:05:28;18.77;;;8.63;;
44810;SDS011;30526;52.184;4.476;2023-12-22T13:08:02;22.33;;;8.80;;
44810;SDS011;30526;52.184;4.476;2023-12-22T13:10:32;25.23;;;9.38;;
44810;SDS011;30526;52.184;4.476;2023-12-22T13:12:58;29.95;;;8.98;;
44810;SDS011;30526;52.184;4.476;2023-12-22T13:15:24;19.42;;;9.02;;
44810;SDS011;30526;52.184;4.476;2023-12-22T13:17:51;17.88;;;8.88;;
44810;SDS011;30526;52.184;4.476;2023-12-22T13:20:17;23.35;;;9.07;;
44810;SDS011;30526;52.184;4.476;2023-12-22T13:22:43;27.35;;;9.55;;
44810;SDS011;30526;52.184;4.476;2023-12-22T13:25:09;21.10;;;9.63;;
44810;SDS011;30526;52.184;4.476;2023-12-22T13:30:15;22.90;;;10.00;;
44810;SDS011;30526;52.184;4.476;2023-12-22T13:32:41;28.53;;;9.63;;
44810;SDS011;30526;52.184;4.476;2023-12-22T13:35:07;23.52;;;9.18;;
44810;SDS011;30526;52.184;4.476;2023-12-22T13:37:34;17.42;;;9.05;;
44810;SDS011;30526;52.184;4.476;2023-12-22T13:40:08;23.90;;;10.57;;
44810;SDS011;30526;52.184;4.476;2023-12-22T13:42:35;21.85;;;9.77;;
44810;SDS011;30526;52.184;4.476;2023-12-22T13:45:02;19.70;;;9.80;;
44810;SDS011;30526;52.184;4.476;2023-12-22T13:47:29;20.90;;;9.48;;
44810;SDS011;30526;52.184;4.476;2023-12-22T13:49:55;26.77;;;9.63;;
44810;SDS011;30526;52.184;4.476;2023-12-22T13:54:52;28.50;;;9.93;;
44810;SDS011;30526;52.184;4.476;2023-12-22T13:57:21;22.17;;;10.23;;
44810;SDS011;30526;52.184;4.476;2023-12-22T13:59:47;35.08;;;10.02;;
44810;SDS011;30526;52.184;4.476;2023-12-22T14:02:13;23.48;;;9.32;;
44810;SDS011;30526;52.184;4.476;2023-12-22T14:04:39;31.35;;;9.13;;
44810;SDS011;30526;52.184;4.476;2023-12-22T14:07:05;23.45;;;9.77;;
44810;SDS011;30526;52.184;4.476;2023-12-22T14:09:31;28.52;;;10.43;;
44810;SDS011;30526;52.184;4.476;2023-12-22T14:11:58;35.65;;;9.75;;
44810;SDS011;30526;52.184;4.476;2023-12-22T14:14:24;22.98;;;8.05;;
44810;SDS011;30526;52.184;4.476;2023-12-22T14:16:50;23.15;;;8.68;;
44810;SDS011;30526;52.184;4.476;2023-12-22T14:19:16;26.60;;;10.48;;
44810;SDS011;30526;52.184;4.476;2023-12-22T14:21:42;24.02;;;8.93;;
44810;SDS011;30526;52.184;4.476;2023-12-22T14:24:08;27.60;;;9.70;;
44810;SDS011;30526;52.184;4.476;2023-12-22T14:26:51;17.10;;;8.73;;
44810;SDS011;30526;52.184;4.476;2023-12-22T14:29:17;22.60;;;9.35;;
44810;SDS011;30526;52.184;4.476;2023-12-22T14:31:43;31.90;;;8.95;;
44810;SDS011;30526;52.184;4.476;2023-12-22T14:34:09;23.25;;;8.73;;
44810;SDS011;30526;52.184;4.476;2023-12-22T14:36:38;26.17;;;8.73;;